createdAt,value
2023-01-12T00:00:17.641Z,46.06
2023-01-12T00:01:17.529Z,41.71
2023-01-12T00:02:17.574Z,44.88
2023-01-12T00:03:17.519Z,44.37
2023-01-12T00:04:17.634Z,45.47
2023-01-12T00:05:17.500Z,53.30
2023-01-12T00:06:17.506Z,54.11
2023-01-12T00:07:17.511Z,43.93
2023-01-12T00:08:17.488Z,43.85
2023-01-12T00:09:17.481Z,41.69
2023-01-12T00:10:17.454Z,45.12
2023-01-12T00:11:17.448Z,42.26
2023-01-12T00:12:17.468Z,43.39
2023-01-12T00:13:17.502Z,44.81
2023-01-12T00:14:17.433Z,41.67
2023-01-12T00:15:17.427Z,46.34
2023-01-12T00:16:17.461Z,50.83
2023-01-12T00:17:17.423Z,45.82
2023-01-12T00:18:17.409Z,41.64
2023-01-12T00:19:17.434Z,41.57
2023-01-12T00:20:17.406Z,43.65
2023-01-12T00:21:17.381Z,41.80
2023-01-12T00:22:17.403Z,45.27
2023-01-12T00:23:17.498Z,46.73
2023-01-12T00:24:17.358Z,43.00
2023-01-12T00:25:17.379Z,44.75
2023-01-12T00:26:17.352Z,45.78
2023-01-12T00:27:17.368Z,42.71
2023-01-12T00:28:17.331Z,49.10
2023-01-12T00:29:17.318Z,41.79
2023-01-12T00:30:17.314Z,45.62
2023-01-12T00:31:17.305Z,50.16
2023-01-12T00:32:17.315Z,41.66
2023-01-12T00:33:17.299Z,44.46
2023-01-12T00:34:17.275Z,46.10
2023-01-12T00:35:17.280Z,46.64
2023-01-12T00:36:17.267Z,41.52
2023-01-12T00:37:17.291Z,45.63
2023-01-12T00:38:17.229Z,43.05
2023-01-12T00:39:17.235Z,51.06
2023-01-12T00:40:17.215Z,46.57
2023-01-12T00:41:17.212Z,44.33
2023-01-12T00:42:17.246Z,56.09
2023-01-12T00:43:17.216Z,54.78
2023-01-12T00:44:17.189Z,43.26
2023-01-12T00:45:17.204Z,42.26
2023-01-12T00:46:17.227Z,56.05
2023-01-12T00:47:17.202Z,42.28
2023-01-12T00:48:17.198Z,42.35
2023-01-12T00:49:17.147Z,45.19
2023-01-12T00:50:19.337Z,46.22
2023-01-12T00:51:18.178Z,51.80
2023-01-12T00:52:29.356Z,46.72
2023-01-12T00:53:19.146Z,42.22
2023-01-12T00:54:17.108Z,47.43
2023-01-12T00:55:17.103Z,51.14
2023-01-12T00:56:17.087Z,44.02
2023-01-12T00:57:17.090Z,45.84
2023-01-12T00:58:17.097Z,50.03
2023-01-12T00:59:17.082Z,42.32
2023-01-12T01:00:17.082Z,44.47
2023-01-12T01:01:17.109Z,46.53
2023-01-12T01:02:17.155Z,42.37
2023-01-12T01:03:17.070Z,41.99
2023-01-12T01:04:17.031Z,41.68
2023-01-12T01:05:17.021Z,45.51
2023-01-12T01:06:17.013Z,42.63
2023-01-12T01:07:17.016Z,46.93
2023-01-12T01:08:17.020Z,42.30
2023-01-12T01:09:16.991Z,48.67
2023-01-12T01:10:16.979Z,47.61
2023-01-12T01:11:16.999Z,45.01
2023-01-12T01:12:16.978Z,45.81
2023-01-12T01:13:16.984Z,45.90
2023-01-12T01:14:16.959Z,44.62
2023-01-12T01:15:16.935Z,57.74
2023-01-12T01:16:17.035Z,48.10
2023-01-12T01:17:16.924Z,43.32
2023-01-12T01:18:16.951Z,50.14
2023-01-12T01:19:16.921Z,47.06
2023-01-12T01:20:16.919Z,43.93
2023-01-12T01:21:16.907Z,47.39
2023-01-12T01:22:16.885Z,54.67
2023-01-12T01:23:16.915Z,46.27
2023-01-12T01:24:16.876Z,41.87
2023-01-12T01:25:16.876Z,59.34
2023-01-12T01:26:16.862Z,46.53
2023-01-12T01:27:16.856Z,46.31
2023-01-12T01:28:16.865Z,42.55
2023-01-12T01:29:16.842Z,44.71
2023-01-12T01:30:16.832Z,53.05
2023-01-12T01:31:16.854Z,52.76
2023-01-12T01:32:16.878Z,45.14
2023-01-12T01:33:16.836Z,41.73
2023-01-12T01:34:16.820Z,43.59
2023-01-12T01:35:16.791Z,46.17
2023-01-12T01:36:16.783Z,43.79
2023-01-12T01:37:16.777Z,45.05
2023-01-12T01:38:16.833Z,50.61
2023-01-12T01:39:16.765Z,54.51
2023-01-12T01:40:16.883Z,44.88
2023-01-12T01:41:16.738Z,42.17
2023-01-12T01:42:16.777Z,45.48
2023-01-12T01:43:16.757Z,56.00
2023-01-12T01:44:16.729Z,46.69
2023-01-12T01:45:16.748Z,56.36
2023-01-12T01:46:16.730Z,60.47
2023-01-12T01:47:16.700Z,48.08
2023-01-12T01:48:16.732Z,57.31
2023-01-12T01:49:16.684Z,50.56
2023-01-12T01:50:16.688Z,49.16
2023-01-12T01:51:16.678Z,57.79
2023-01-12T01:52:16.665Z,44.45
2023-01-12T01:53:16.712Z,44.97
2023-01-12T01:54:16.637Z,42.52
2023-01-12T01:55:16.667Z,54.71
2023-01-12T01:56:16.636Z,43.03
2023-01-12T01:57:16.638Z,46.04
2023-01-12T01:58:16.642Z,53.82
2023-01-12T01:59:16.612Z,52.10
2023-01-12T02:00:16.614Z,46.79
2023-01-12T02:01:16.727Z,44.96
2023-01-12T02:02:16.679Z,59.78
2023-01-12T02:03:16.622Z,42.70
2023-01-12T02:04:16.620Z,43.83
2023-01-12T02:05:16.581Z,46.18
2023-01-12T02:06:16.587Z,52.03
2023-01-12T02:07:16.554Z,44.63
2023-01-12T02:08:16.542Z,44.70
2023-01-12T02:09:16.560Z,48.90
2023-01-12T02:10:16.548Z,48.87
2023-01-12T02:11:16.548Z,45.80
2023-01-12T02:12:16.516Z,47.85
2023-01-12T02:13:16.516Z,45.11
2023-01-12T02:14:16.521Z,44.51
2023-01-12T02:15:16.504Z,56.35
2023-01-12T02:16:16.527Z,53.52
2023-01-12T02:17:16.480Z,42.64
2023-01-12T02:18:16.481Z,44.18
2023-01-12T02:19:16.468Z,45.08
2023-01-12T02:20:16.459Z,49.59
2023-01-12T02:21:16.488Z,46.66
2023-01-12T02:22:16.444Z,42.58
2023-01-12T02:23:16.431Z,45.02
2023-01-12T02:24:16.425Z,46.37
2023-01-12T02:25:16.430Z,44.79
2023-01-12T02:26:16.448Z,41.86
2023-01-12T02:27:16.414Z,42.84
2023-01-12T02:28:16.388Z,49.44
2023-01-12T02:29:16.399Z,56.52
2023-01-12T02:30:16.381Z,50.44
2023-01-12T02:31:16.709Z,43.29
2023-01-12T02:32:16.367Z,48.15
2023-01-12T02:33:16.364Z,56.05
2023-01-12T02:34:16.352Z,51.93
2023-01-12T02:35:16.372Z,50.79
2023-01-12T02:36:16.329Z,47.90
2023-01-12T02:37:16.366Z,47.79
2023-01-12T02:38:16.324Z,55.44
2023-01-12T02:39:16.320Z,46.02
2023-01-12T02:40:16.335Z,45.50
2023-01-12T02:41:16.301Z,57.10
2023-01-12T02:42:16.347Z,44.89
2023-01-12T02:43:16.330Z,45.51
2023-01-12T02:44:16.272Z,42.97
2023-01-12T02:45:16.288Z,45.76
2023-01-12T02:46:16.292Z,43.69
2023-01-12T02:47:16.279Z,45.23
2023-01-12T02:48:16.264Z,43.07
2023-01-12T02:49:16.241Z,47.84
2023-01-12T02:50:16.240Z,46.31
2023-01-12T02:51:16.214Z,44.54
2023-01-12T02:52:16.239Z,43.70
2023-01-12T02:53:16.231Z,47.39
2023-01-12T02:54:16.217Z,46.40
2023-01-12T02:55:16.190Z,62.51
2023-01-12T02:56:16.183Z,43.50
2023-01-12T02:57:16.224Z,45.92
2023-01-12T02:58:16.166Z,46.79
2023-01-12T02:59:16.150Z,44.88
2023-01-12T03:00:16.158Z,46.46
2023-01-12T03:01:16.206Z,57.99
2023-01-12T03:02:16.164Z,48.26
2023-01-12T03:03:16.236Z,47.31
2023-01-12T03:04:16.116Z,44.24
2023-01-12T03:05:16.105Z,48.57
2023-01-12T03:06:16.124Z,49.67
2023-01-12T03:07:16.115Z,49.58
2023-01-12T03:08:16.096Z,48.18
2023-01-12T03:09:16.072Z,56.21
2023-01-12T03:10:16.087Z,48.69
2023-01-12T03:11:16.080Z,52.30
2023-01-12T03:12:16.092Z,45.41
2023-01-12T03:13:16.063Z,43.18
2023-01-12T03:14:16.071Z,47.26
2023-01-12T03:15:16.031Z,57.01
2023-01-12T03:16:16.078Z,42.99
2023-01-12T03:17:16.050Z,45.74
2023-01-12T03:18:16.015Z,47.72
2023-01-12T03:19:16.025Z,46.95
2023-01-12T03:20:16.013Z,44.61
2023-01-12T03:21:15.980Z,48.85
2023-01-12T03:22:17.013Z,49.06
2023-01-12T03:23:15.995Z,47.38
2023-01-12T03:24:15.965Z,43.91
2023-01-12T03:25:15.964Z,47.50
2023-01-12T03:26:15.952Z,51.95
2023-01-12T03:27:15.992Z,46.71
2023-01-12T03:28:15.955Z,50.05
2023-01-12T03:29:15.929Z,43.33
2023-01-12T03:30:15.935Z,50.37
2023-01-12T03:31:15.932Z,43.61
2023-01-12T03:32:15.963Z,42.94
2023-01-12T03:33:15.926Z,50.94
2023-01-12T03:34:15.901Z,44.38
2023-01-12T03:35:15.897Z,49.65
2023-01-12T03:36:15.878Z,49.57
2023-01-12T03:37:15.864Z,56.78
2023-01-12T03:38:15.899Z,46.35
2023-01-12T03:39:15.852Z,52.43
2023-01-12T03:40:15.869Z,46.30
2023-01-12T03:41:15.910Z,53.16
2023-01-12T03:42:15.845Z,56.77
2023-01-12T03:43:15.858Z,48.30
2023-01-12T03:44:15.818Z,46.31
2023-01-12T03:45:15.843Z,43.89
2023-01-12T03:46:15.833Z,48.89
2023-01-12T03:47:15.795Z,54.65
2023-01-12T03:48:15.846Z,51.04
2023-01-12T03:49:15.780Z,54.02
2023-01-12T03:50:15.772Z,49.67
2023-01-12T03:51:15.770Z,47.41
2023-01-12T03:52:15.759Z,44.28
2023-01-12T03:53:15.828Z,51.11
2023-01-12T03:54:15.754Z,49.85
2023-01-12T03:55:15.750Z,49.41
2023-01-12T03:56:15.741Z,49.36
2023-01-12T03:57:15.723Z,50.39
2023-01-12T03:58:15.742Z,52.87
2023-01-12T03:59:15.703Z,54.77
2023-01-12T04:00:15.703Z,44.66
2023-01-12T04:01:15.749Z,48.35
2023-01-12T04:02:15.680Z,49.85
2023-01-12T04:03:15.737Z,47.80
2023-01-12T04:04:15.672Z,55.39
2023-01-12T04:05:15.664Z,52.52
2023-01-12T04:06:15.658Z,51.15
2023-01-12T04:07:15.646Z,51.93
2023-01-12T04:08:15.677Z,49.19
2023-01-12T04:09:15.622Z,50.14
2023-01-12T04:10:15.618Z,57.60
2023-01-12T04:11:15.610Z,49.64
2023-01-12T04:12:15.606Z,50.64
2023-01-12T04:13:15.635Z,50.58
2023-01-12T04:14:15.650Z,49.61
2023-01-12T04:15:15.600Z,53.25
2023-01-12T04:16:15.608Z,53.28
2023-01-12T04:17:15.588Z,51.71
2023-01-12T04:18:15.594Z,56.66
2023-01-12T04:19:15.554Z,53.22
2023-01-12T04:20:15.548Z,49.09
2023-01-12T04:21:15.540Z,59.03
2023-01-12T04:22:15.550Z,54.65
2023-01-12T04:23:15.571Z,52.60
2023-01-12T04:24:15.515Z,54.50
2023-01-12T04:25:15.517Z,54.79
2023-01-12T04:26:15.502Z,55.32
2023-01-12T04:27:15.500Z,60.64
2023-01-12T04:28:15.507Z,51.59
2023-01-12T04:29:15.499Z,57.94
2023-01-12T04:30:15.486Z,51.79
2023-01-12T04:31:15.464Z,58.59
2023-01-12T04:32:15.465Z,55.27
2023-01-12T04:33:15.498Z,54.84
2023-01-12T04:34:15.447Z,56.16
2023-01-12T04:35:15.452Z,55.58
2023-01-12T04:36:15.431Z,62.11
2023-01-12T04:37:15.421Z,51.87
2023-01-12T04:38:15.467Z,55.11
2023-01-12T04:39:15.408Z,56.18
2023-01-12T04:40:15.395Z,50.60
2023-01-12T04:41:15.386Z,52.27
2023-01-12T04:42:16.403Z,52.28
2023-01-12T04:43:15.407Z,61.06
2023-01-12T04:44:15.393Z,52.54
2023-01-12T04:45:15.382Z,49.56
2023-01-12T04:46:15.430Z,58.76
2023-01-12T04:47:15.359Z,54.57
2023-01-12T04:48:15.365Z,54.01
2023-01-12T04:49:15.328Z,51.84
2023-01-12T04:50:15.330Z,50.58
2023-01-12T04:51:15.310Z,57.79
2023-01-12T04:52:15.314Z,54.01
2023-01-12T04:53:15.366Z,52.14
2023-01-12T04:54:15.286Z,58.04
2023-01-12T04:55:15.292Z,54.19
2023-01-12T04:56:15.282Z,52.67
2023-01-12T04:57:15.272Z,59.44
2023-01-12T04:58:15.264Z,52.38
2023-01-12T04:59:15.273Z,50.41
2023-01-12T05:00:15.260Z,54.09
2023-01-12T05:01:15.305Z,54.84
2023-01-12T05:02:15.273Z,55.16
2023-01-12T05:03:15.234Z,53.48
2023-01-12T05:04:15.351Z,50.72
2023-01-12T05:05:15.203Z,56.10
2023-01-12T05:06:15.203Z,53.00
2023-01-12T05:07:15.185Z,50.36
2023-01-12T05:08:15.223Z,51.85
2023-01-12T05:09:15.202Z,54.39
2023-01-12T05:10:15.157Z,55.46
2023-01-12T05:11:15.154Z,56.48
2023-01-12T05:12:15.147Z,54.20
2023-01-12T05:13:15.143Z,59.17
2023-01-12T05:14:15.194Z,53.37
2023-01-12T05:15:15.129Z,54.09
2023-01-12T05:16:15.166Z,61.58
2023-01-12T05:17:15.102Z,51.92
2023-01-12T05:18:15.096Z,56.79
2023-01-12T05:19:15.123Z,56.60
2023-01-12T05:20:15.084Z,54.93
2023-01-12T05:21:15.076Z,55.64
2023-01-12T05:22:15.067Z,57.15
2023-01-12T05:23:15.054Z,54.70
2023-01-12T05:24:15.181Z,58.79
2023-01-12T05:25:15.044Z,59.17
2023-01-12T05:26:15.061Z,56.13
2023-01-12T05:27:15.038Z,51.44
2023-01-12T05:28:15.029Z,56.89
2023-01-12T05:29:15.040Z,55.63
2023-01-12T05:30:15.017Z,58.76
2023-01-12T05:31:15.056Z,56.65
2023-01-12T05:32:14.997Z,58.23
2023-01-12T05:33:14.979Z,59.35
2023-01-12T05:34:15.110Z,54.52
2023-01-12T05:35:14.972Z,56.39
2023-01-12T05:36:14.978Z,58.09
2023-01-12T05:37:14.972Z,56.50
2023-01-12T05:38:14.956Z,54.19
2023-01-12T05:39:14.983Z,57.19
2023-01-12T05:40:14.931Z,60.02
2023-01-12T05:41:14.938Z,56.65
2023-01-12T05:42:14.941Z,56.68
2023-01-12T05:43:14.916Z,53.91
2023-01-12T05:44:14.933Z,57.48
2023-01-12T05:45:14.908Z,57.16
2023-01-12T05:46:15.038Z,58.36
2023-01-12T05:47:14.880Z,56.98
2023-01-12T05:48:14.883Z,57.53
2023-01-12T05:49:14.895Z,56.80
2023-01-12T05:50:14.859Z,56.29
2023-01-12T05:51:14.869Z,56.35
2023-01-12T05:52:14.836Z,55.48
2023-01-12T05:53:14.837Z,56.29
2023-01-12T05:54:14.847Z,53.84
2023-01-12T05:55:14.824Z,59.17
2023-01-12T05:56:15.808Z,59.43
2023-01-12T05:57:14.794Z,56.00
2023-01-12T05:58:14.799Z,62.13
2023-01-12T05:59:14.831Z,59.29
2023-01-12T06:00:14.781Z,57.51
2023-01-12T06:01:14.832Z,56.03
2023-01-12T06:02:14.793Z,54.91
2023-01-12T06:03:14.753Z,60.91
2023-01-12T06:04:14.840Z,52.01
2023-01-12T06:05:14.737Z,55.95
2023-01-12T06:06:14.733Z,58.41
2023-01-12T06:07:14.725Z,58.64
2023-01-12T06:08:14.727Z,55.19
2023-01-12T06:09:14.739Z,56.70
2023-01-12T06:10:14.702Z,57.24
2023-01-12T06:11:14.717Z,58.57
2023-01-12T06:12:14.710Z,56.17
2023-01-12T06:13:14.682Z,56.48
2023-01-12T06:14:14.714Z,56.28
2023-01-12T06:15:14.670Z,59.74
2023-01-12T06:16:14.708Z,57.90
2023-01-12T06:17:14.647Z,51.37
2023-01-12T06:18:14.661Z,56.62
2023-01-12T06:19:14.645Z,59.96
2023-01-12T06:20:14.643Z,53.44
2023-01-12T06:21:14.613Z,62.25
2023-01-12T06:22:14.653Z,57.51
2023-01-12T06:23:14.598Z,56.83
2023-01-12T06:24:14.606Z,54.56
2023-01-12T06:25:15.624Z,56.12
2023-01-12T06:26:14.603Z,56.29
2023-01-12T06:27:14.574Z,54.85
2023-01-12T06:28:14.578Z,56.48
2023-01-12T06:29:14.568Z,60.71
2023-01-12T06:30:14.580Z,55.87
2023-01-12T06:31:14.579Z,58.80
2023-01-12T06:32:14.539Z,60.57
2023-01-12T06:33:14.542Z,54.76
2023-01-12T06:34:14.522Z,56.13
2023-01-12T06:35:19.374Z,57.71
2023-01-12T06:36:16.490Z,60.02
2023-01-12T06:37:14.488Z,56.95
2023-01-12T06:38:14.479Z,58.03
2023-01-12T06:39:15.479Z,56.61
2023-01-12T06:40:14.502Z,57.37
2023-01-12T06:41:14.604Z,55.43
2023-01-12T06:42:14.456Z,55.50
2023-01-12T06:43:14.462Z,60.42
2023-01-12T06:44:14.441Z,59.93
2023-01-12T06:45:14.448Z,57.31
2023-01-12T06:46:14.454Z,56.75
2023-01-12T06:47:14.444Z,58.43
2023-01-12T06:48:14.413Z,58.49
2023-01-12T06:49:14.393Z,58.79
2023-01-12T06:50:14.415Z,58.09
2023-01-12T06:51:14.383Z,57.58
2023-01-12T06:52:14.376Z,55.45
2023-01-12T06:53:14.361Z,56.84
2023-01-12T06:54:14.357Z,54.71
2023-01-12T06:55:14.384Z,59.58
2023-01-12T06:56:14.334Z,60.03
2023-01-12T06:57:14.344Z,56.39
2023-01-12T06:58:14.319Z,60.04
2023-01-12T06:59:14.318Z,56.84
2023-01-12T07:00:14.352Z,54.85
2023-01-12T07:01:14.366Z,55.27
2023-01-12T07:02:15.370Z,55.42
2023-01-12T07:03:14.284Z,56.95
2023-01-12T07:04:14.306Z,51.80
2023-01-12T07:05:14.332Z,53.67
2023-01-12T07:06:14.260Z,54.87
2023-01-12T07:07:14.261Z,59.02
2023-01-12T07:08:14.246Z,56.28
2023-01-12T07:09:14.241Z,58.94
2023-01-12T07:10:14.230Z,54.77
2023-01-12T07:11:14.251Z,58.82
2023-01-12T07:12:14.231Z,55.49
2023-01-12T07:13:14.209Z,60.00
2023-01-12T07:14:14.206Z,55.37
2023-01-12T07:15:14.194Z,54.81
2023-01-12T07:16:14.281Z,55.81
2023-01-12T07:17:14.185Z,55.21
2023-01-12T07:18:14.174Z,60.77
2023-01-12T07:19:14.166Z,58.14
2023-01-12T07:20:14.191Z,56.41
2023-01-12T07:21:14.175Z,55.75
2023-01-12T07:22:14.168Z,58.87
2023-01-12T07:23:14.133Z,53.92
2023-01-12T07:24:14.153Z,57.46
2023-01-12T07:25:14.128Z,57.82
2023-01-12T07:26:14.157Z,55.98
2023-01-12T07:27:14.116Z,55.72
2023-01-12T07:28:14.106Z,55.43
2023-01-12T07:29:14.096Z,55.86
2023-01-12T07:30:14.086Z,59.95
2023-01-12T07:31:14.200Z,55.32
2023-01-12T07:32:14.064Z,55.57
2023-01-12T07:33:14.103Z,54.75
2023-01-12T07:34:14.063Z,56.97
2023-01-12T07:35:14.037Z,61.15
2023-01-12T07:36:14.080Z,54.22
2023-01-12T07:37:14.028Z,57.81
2023-01-12T07:38:14.030Z,58.90
2023-01-12T07:39:14.001Z,56.82
2023-01-12T07:40:13.999Z,58.05
2023-01-12T07:41:14.064Z,55.73
2023-01-12T07:42:14.991Z,55.58
2023-01-12T07:43:14.021Z,58.04
2023-01-12T07:44:13.959Z,57.51
2023-01-12T07:45:13.964Z,57.01
2023-01-12T07:46:14.007Z,54.43
2023-01-12T07:47:13.946Z,56.27
2023-01-12T07:48:13.941Z,60.03
2023-01-12T07:49:13.949Z,53.03
2023-01-12T07:50:13.920Z,56.73
2023-01-12T07:51:13.940Z,56.52
2023-01-12T07:52:13.915Z,55.73
2023-01-12T07:53:13.890Z,59.08
2023-01-12T07:54:13.891Z,58.04
2023-01-12T07:55:13.881Z,56.14
2023-01-12T07:56:13.899Z,56.10
2023-01-12T07:57:13.889Z,56.07
2023-01-12T07:58:13.862Z,55.26
2023-01-12T07:59:13.875Z,57.73
2023-01-12T08:00:13.849Z,49.92
2023-01-12T08:01:13.986Z,63.23
2023-01-12T08:02:13.918Z,54.38
2023-01-12T08:03:13.854Z,55.90
2023-01-12T08:04:13.899Z,55.17
2023-01-12T08:05:13.824Z,56.80
2023-01-12T08:06:13.893Z,52.60
2023-01-12T08:07:13.804Z,55.69
2023-01-12T08:08:13.790Z,55.00
2023-01-12T08:09:13.793Z,55.55
2023-01-12T08:10:13.765Z,56.29
2023-01-12T08:11:13.767Z,53.51
2023-01-12T08:12:13.778Z,55.95
2023-01-12T08:13:13.748Z,56.23
2023-01-12T08:14:13.728Z,56.17
2023-01-12T08:15:13.725Z,56.08
2023-01-12T08:16:13.730Z,55.85
2023-01-12T08:17:13.759Z,59.98
2023-01-12T08:18:13.718Z,55.86
2023-01-12T08:19:13.703Z,56.41
2023-01-12T08:20:13.693Z,55.21
2023-01-12T08:21:13.709Z,56.28
2023-01-12T08:22:13.830Z,55.53
2023-01-12T08:23:13.706Z,61.11
2023-01-12T08:24:13.662Z,53.96
2023-01-12T08:25:13.677Z,54.90
2023-01-12T08:26:13.651Z,56.60
2023-01-12T08:27:13.666Z,60.51
2023-01-12T08:28:13.628Z,57.68
2023-01-12T08:29:13.655Z,56.87
2023-01-12T08:30:13.604Z,56.31
2023-01-12T08:31:14.829Z,57.95
2023-01-12T08:32:14.011Z,56.27
2023-01-12T08:33:16.163Z,57.19
2023-01-12T08:34:14.812Z,59.04
2023-01-12T08:35:15.103Z,57.98
2023-01-12T08:37:13.657Z,57.57
2023-01-12T08:38:14.188Z,58.57
2023-01-12T08:39:16.172Z,57.40
2023-01-12T08:40:15.231Z,59.54
2023-01-12T08:41:14.084Z,61.62
2023-01-12T08:42:13.617Z,55.69
2023-01-12T08:43:18.094Z,56.43
2023-01-12T08:44:13.606Z,52.59
2023-01-12T08:45:13.548Z,57.29
2023-01-12T08:46:14.314Z,58.74
2023-01-12T08:47:14.095Z,58.14
2023-01-12T08:48:13.524Z,57.17
2023-01-12T08:49:16.823Z,62.04
2023-01-12T08:50:14.089Z,55.92
2023-01-12T08:51:14.510Z,59.47
2023-01-12T08:52:14.182Z,60.29
2023-01-12T08:53:14.089Z,56.17
2023-01-12T08:54:16.646Z,53.03
2023-01-12T08:55:14.292Z,56.63
2023-01-12T08:56:15.161Z,57.96
2023-01-12T08:57:16.596Z,56.57
2023-01-12T08:58:20.105Z,60.49
2023-01-12T08:59:16.088Z,56.06
2023-01-12T09:00:13.461Z,56.41
2023-01-12T09:01:22.221Z,57.21
2023-01-12T09:02:15.182Z,53.71
2023-01-12T09:03:14.389Z,55.50
2023-01-12T09:04:15.158Z,56.50
2023-01-12T09:05:17.090Z,60.18
2023-01-12T09:06:13.372Z,55.34
2023-01-12T09:07:14.596Z,55.38
2023-01-12T09:08:13.392Z,54.71
2023-01-12T09:09:14.219Z,59.63
2023-01-12T09:10:13.405Z,57.87
2023-01-12T09:11:13.364Z,57.22
2023-01-12T09:12:16.148Z,56.69
2023-01-12T09:13:14.093Z,57.57
2023-01-12T09:14:13.368Z,56.96
2023-01-12T09:15:14.276Z,54.69
2023-01-12T09:16:14.457Z,57.37
2023-01-12T09:17:16.599Z,56.01
2023-01-12T09:18:14.096Z,57.07
2023-01-12T09:19:14.606Z,60.81
2023-01-12T09:20:14.890Z,58.65
2023-01-12T09:21:15.307Z,53.24
2023-01-12T09:22:14.600Z,52.42
2023-01-12T09:23:14.108Z,63.93
2023-01-12T09:24:13.899Z,54.54
2023-01-12T09:25:16.106Z,53.69
2023-01-12T09:26:14.096Z,62.52
2023-01-12T09:27:14.171Z,58.41
2023-01-12T09:28:14.094Z,57.92
2023-01-12T09:29:15.795Z,62.62
2023-01-12T09:30:14.101Z,60.90
2023-01-12T09:31:13.266Z,59.71
2023-01-12T09:32:13.755Z,61.52
2023-01-12T09:33:15.151Z,62.12
2023-01-12T09:34:13.169Z,58.50
2023-01-12T09:35:13.164Z,58.43
2023-01-12T09:36:13.791Z,57.85
2023-01-12T09:37:13.176Z,58.84
2023-01-12T09:38:15.601Z,56.91
2023-01-12T09:39:26.477Z,58.00
2023-01-12T09:40:15.661Z,57.27
2023-01-12T09:41:14.597Z,59.96
2023-01-12T09:42:15.610Z,57.76
2023-01-12T09:43:16.098Z,58.10
2023-01-12T09:44:14.639Z,57.63
2023-01-12T09:45:16.724Z,57.76
2023-01-12T09:46:14.670Z,57.28
2023-01-12T09:47:13.750Z,58.73
2023-01-12T09:48:15.099Z,57.13
2023-01-12T09:49:17.163Z,61.68
2023-01-12T09:50:14.693Z,57.80
2023-01-12T09:51:16.601Z,56.84
2023-01-12T09:52:13.906Z,59.43
2023-01-12T09:53:16.602Z,60.22
2023-01-12T09:54:14.102Z,60.29
2023-01-12T09:55:14.121Z,60.68
2023-01-12T09:56:13.676Z,58.40
2023-01-12T09:57:24.399Z,58.49
2023-01-12T09:58:17.104Z,57.53
2023-01-12T09:59:18.752Z,61.31
2023-01-12T10:00:16.111Z,57.97
2023-01-12T10:01:24.111Z,57.35
2023-01-12T10:02:16.671Z,58.37
2023-01-12T10:03:13.664Z,55.61
2023-01-12T10:04:12.899Z,57.73
2023-01-12T10:05:12.894Z,58.07
2023-01-12T10:06:12.869Z,54.76
2023-01-12T10:07:12.851Z,56.26
2023-01-12T10:08:12.843Z,55.93
2023-01-12T10:09:12.860Z,57.86
2023-01-12T10:10:12.833Z,54.21
2023-01-12T10:11:12.819Z,58.53
2023-01-12T10:12:12.840Z,56.77
2023-01-12T10:13:12.801Z,57.17
2023-01-12T10:14:12.820Z,61.41
2023-01-12T10:15:12.816Z,60.83
2023-01-12T10:16:12.803Z,57.73
2023-01-12T10:17:12.781Z,56.58
2023-01-12T10:18:12.769Z,59.78
2023-01-12T10:19:12.797Z,57.17
2023-01-12T10:20:12.764Z,62.29
2023-01-12T10:21:12.751Z,60.94
2023-01-12T10:22:12.736Z,57.85
2023-01-12T10:23:12.769Z,54.41
2023-01-12T10:24:12.745Z,57.89
2023-01-12T10:25:12.736Z,53.93
2023-01-12T10:26:12.700Z,57.01
2023-01-12T10:27:12.701Z,53.29
2023-01-12T10:28:12.684Z,55.86
2023-01-12T10:29:12.706Z,57.12
2023-01-12T10:30:12.698Z,56.43
2023-01-12T10:31:13.668Z,57.58
2023-01-12T10:32:13.062Z,57.42
2023-01-12T10:33:12.649Z,55.40
2023-01-12T10:34:12.692Z,58.46
2023-01-12T10:35:45.211Z,59.12
2023-01-12T10:36:12.627Z,56.35
2023-01-12T10:37:12.622Z,55.70
2023-01-12T10:38:12.612Z,58.62
2023-01-12T10:39:12.623Z,58.85
2023-01-12T10:40:12.599Z,54.81
2023-01-12T10:41:12.577Z,60.29
2023-01-12T10:42:12.577Z,59.02
2023-01-12T10:43:19.581Z,59.57
2023-01-12T10:44:14.596Z,57.95
2023-01-12T10:45:12.555Z,55.62
2023-01-12T10:46:13.629Z,54.23
2023-01-12T10:47:12.538Z,57.76
2023-01-12T10:48:12.531Z,60.83
2023-01-12T10:49:12.556Z,57.13
2023-01-12T10:50:12.529Z,58.27
2023-01-12T10:51:12.524Z,54.31
2023-01-12T10:52:12.511Z,57.97
2023-01-12T10:53:12.499Z,56.78
2023-01-12T10:54:12.501Z,55.24
2023-01-12T10:55:12.544Z,57.67
2023-01-12T10:56:12.531Z,58.15
2023-01-12T10:57:12.520Z,59.36
2023-01-12T10:58:12.462Z,59.41
2023-01-12T10:59:12.474Z,57.53
2023-01-12T11:00:12.466Z,59.29
2023-01-12T11:01:12.553Z,58.67
2023-01-12T11:02:12.654Z,56.82
2023-01-12T11:03:12.455Z,56.42
2023-01-12T11:04:12.434Z,57.92
2023-01-12T11:05:12.449Z,59.75
2023-01-12T11:06:12.420Z,57.58
2023-01-12T11:07:12.386Z,56.45
2023-01-12T11:08:12.381Z,57.26
2023-01-12T11:09:12.391Z,55.24
2023-01-12T11:10:12.460Z,57.55
2023-01-12T11:11:12.458Z,59.29
2023-01-12T11:12:12.346Z,56.98
2023-01-12T11:13:12.348Z,60.90
2023-01-12T11:14:13.222Z,61.31
2023-01-12T11:15:12.349Z,56.92
2023-01-12T11:16:12.422Z,57.90
2023-01-12T11:17:12.339Z,56.73
2023-01-12T11:18:12.366Z,58.37
2023-01-12T11:19:12.296Z,56.25
2023-01-12T11:20:12.331Z,59.01
2023-01-12T11:21:12.378Z,58.74
2023-01-12T11:22:12.281Z,59.29
2023-01-12T11:23:13.295Z,57.15
2023-01-12T11:24:12.258Z,57.90
2023-01-12T11:25:12.289Z,57.93
2023-01-12T11:26:12.275Z,57.84
2023-01-12T11:27:12.231Z,64.75
2023-01-12T11:28:12.236Z,59.19
2023-01-12T11:29:12.225Z,54.60
2023-01-12T11:30:12.235Z,57.75
2023-01-12T11:31:12.314Z,60.76
2023-01-12T11:32:12.202Z,58.61
2023-01-12T11:33:12.192Z,60.86
2023-01-12T11:34:12.222Z,55.11
2023-01-12T11:35:12.233Z,57.34
2023-01-12T11:36:12.190Z,55.04
2023-01-12T11:37:12.166Z,57.20
2023-01-12T11:38:12.153Z,58.33
2023-01-12T11:39:12.148Z,61.62
2023-01-12T11:40:12.160Z,57.63
2023-01-12T11:41:12.122Z,56.01
2023-01-12T11:42:12.124Z,58.27
2023-01-12T11:43:12.122Z,58.44
2023-01-12T11:44:12.104Z,55.47
2023-01-12T11:45:12.163Z,57.82
2023-01-12T11:46:12.129Z,55.96
2023-01-12T11:47:12.084Z,54.90
2023-01-12T11:48:12.073Z,58.01
2023-01-12T11:49:12.080Z,56.96
2023-01-12T11:50:12.094Z,52.17
2023-01-12T11:51:12.056Z,57.60
2023-01-12T11:52:12.051Z,58.48
2023-01-12T11:53:12.038Z,58.13
2023-01-12T11:54:12.048Z,58.31
2023-01-12T11:55:12.052Z,56.31
2023-01-12T11:56:12.019Z,56.65
2023-01-12T11:57:12.007Z,53.91
2023-01-12T11:58:11.996Z,56.19
2023-01-12T11:59:12.019Z,56.08
2023-01-12T12:00:11.991Z,55.99
2023-01-12T12:01:12.060Z,58.33
2023-01-12T12:02:12.072Z,60.75
2023-01-12T12:03:11.963Z,53.16
2023-01-12T12:04:11.953Z,57.15
2023-01-12T12:05:12.022Z,58.49
2023-01-12T12:06:11.959Z,60.51
2023-01-12T12:07:11.931Z,52.81
2023-01-12T12:08:11.937Z,58.31
2023-01-12T12:09:11.935Z,57.07
2023-01-12T12:10:11.913Z,57.40
2023-01-12T12:11:11.951Z,54.29
2023-01-12T12:12:11.921Z,60.64
2023-01-12T12:13:11.911Z,58.55
2023-01-12T12:14:11.886Z,57.39
2023-01-12T12:15:11.879Z,57.74
2023-01-12T12:16:11.940Z,59.11
2023-01-12T12:17:11.853Z,59.28
2023-01-12T12:18:11.869Z,57.21
2023-01-12T12:19:11.847Z,59.37
2023-01-12T12:20:11.832Z,54.87
2023-01-12T12:21:11.852Z,59.17
2023-01-12T12:22:11.847Z,57.02
2023-01-12T12:23:11.817Z,55.85
2023-01-12T12:24:11.827Z,58.03
2023-01-12T12:25:11.831Z,57.68
2023-01-12T12:26:11.818Z,55.45
2023-01-12T12:27:11.792Z,55.91
2023-01-12T12:28:11.775Z,58.69
2023-01-12T12:29:11.766Z,56.40
2023-01-12T12:30:11.760Z,57.40
2023-01-12T12:31:11.835Z,54.08
2023-01-12T12:32:11.745Z,58.89
2023-01-12T12:33:11.795Z,57.69
2023-01-12T12:34:11.733Z,57.40
2023-01-12T12:35:11.722Z,57.87
2023-01-12T12:36:11.752Z,58.61
2023-01-12T12:37:11.708Z,58.74
2023-01-12T12:38:11.699Z,58.13
2023-01-12T12:39:11.700Z,56.78
2023-01-12T12:40:11.718Z,60.53
2023-01-12T12:41:11.717Z,58.71
2023-01-12T12:42:11.680Z,55.41
2023-01-12T12:43:11.664Z,58.33
2023-01-12T12:44:11.676Z,58.16
2023-01-12T12:45:11.649Z,57.89
2023-01-12T12:46:11.686Z,56.99
2023-01-12T12:47:11.652Z,56.72
2023-01-12T12:48:11.672Z,60.63
2023-01-12T12:49:11.617Z,57.47
2023-01-12T12:50:11.615Z,57.32
2023-01-12T12:51:11.613Z,54.08
2023-01-12T12:52:11.616Z,59.05
2023-01-12T12:53:11.599Z,55.08